sensor_id;sensor_type;location;lat;lon;timestamp;P1;durP1;ratioP1;P2;durP2;ratioP2
62616;SDS011;48692;51.190;6.808;2022-07-12T00:01:06;1.75;;;1.65;;
62616;SDS011;48692;51.190;6.808;2022-07-12T00:03:32;2.15;;;2.03;;
62616;SDS011;48692;51.190;6.808;2022-07-12T00:05:58;1.70;;;1.60;;
62616;SDS011;48692;51.190;6.808;2022-07-12T00:08:25;1.88;;;1.77;;
62616;SDS011;48692;51.190;6.808;2022-07-12T00:10:50;1.70;;;1.60;;
62616;SDS011;48692;51.190;6.808;2022-07-12T00:13:16;1.80;;;1.70;;
62616;SDS011;48692;51.190;6.808;2022-07-12T00:15:42;1.90;;;1.80;;
62616;SDS011;48692;51.190;6.808;2022-07-12T00:18:09;1.80;;;1.70;;
62616;SDS011;48692;51.190;6.808;2022-07-12T00:20:35;1.83;;;1.73;;
62616;SDS011;48692;51.190;6.808;2022-07-12T00:23:01;1.65;;;1.55;;
62616;SDS011;48692;51.190;6.808;2022-07-12T00:25:27;1.70;;;1.60;;
62616;SDS011;48692;51.190;6.808;2022-07-12T00:27:53;1.77;;;1.67;;
62616;SDS011;48692;51.190;6.808;2022-07-12T00:30:19;2.10;;;1.90;;
62616;SDS011;48692;51.190;6.808;2022-07-12T00:32:44;1.95;;;1.80;;
62616;SDS011;48692;51.190;6.808;2022-07-12T00:35:10;1.92;;;1.55;;
62616;SDS011;48692;51.190;6.808;2022-07-12T00:37:36;2.80;;;1.65;;
62616;SDS011;48692;51.190;6.808;2022-07-12T00:40:04;1.92;;;1.70;;
62616;SDS011;48692;51.190;6.808;2022-07-12T00:42:31;1.90;;;1.80;;
62616;SDS011;48692;51.190;6.808;2022-07-12T00:44:57;2.30;;;2.10;;
62616;SDS011;48692;51.190;6.808;2022-07-12T00:50:12;1.98;;;1.80;;
62616;SDS011;48692;51.190;6.808;2022-07-12T00:52:40;1.73;;;1.63;;
62616;SDS011;48692;51.190;6.808;2022-07-12T00:55:08;1.80;;;1.67;;
62616;SDS011;48692;51.190;6.808;2022-07-12T00:57:36;1.67;;;1.58;;
62616;SDS011;48692;51.190;6.808;2022-07-12T01:00:06;1.90;;;1.80;;
62616;SDS011;48692;51.190;6.808;2022-07-12T01:02:34;1.80;;;1.70;;
62616;SDS011;48692;51.190;6.808;2022-07-12T01:05:02;1.60;;;1.50;;
62616;SDS011;48692;51.190;6.808;2022-07-12T01:07:31;2.30;;;1.70;;
62616;SDS011;48692;51.190;6.808;2022-07-12T01:09:58;2.63;;;1.80;;
62616;SDS011;48692;51.190;6.808;2022-07-12T01:12:24;1.60;;;1.50;;
62616;SDS011;48692;51.190;6.808;2022-07-12T01:14:50;2.05;;;1.85;;
62616;SDS011;48692;51.190;6.808;2022-07-12T01:17:20;1.70;;;1.60;;
62616;SDS011;48692;51.190;6.808;2022-07-12T01:19:48;2.65;;;1.70;;
62616;SDS011;48692;51.190;6.808;2022-07-12T01:22:20;1.90;;;1.60;;
62616;SDS011;48692;51.190;6.808;2022-07-12T01:24:52;1.60;;;1.50;;
62616;SDS011;48692;51.190;6.808;2022-07-12T01:27:18;1.83;;;1.70;;
62616;SDS011;48692;51.190;6.808;2022-07-12T01:29:43;1.75;;;1.65;;
62616;SDS011;48692;51.190;6.808;2022-07-12T01:32:09;2.42;;;1.65;;
62616;SDS011;48692;51.190;6.808;2022-07-12T01:34:54;1.65;;;1.50;;
62616;SDS011;48692;51.190;6.808;2022-07-12T01:37:25;2.00;;;1.70;;
62616;SDS011;48692;51.190;6.808;2022-07-12T01:39:56;1.73;;;1.63;;
62616;SDS011;48692;51.190;6.808;2022-07-12T01:42:24;1.63;;;1.52;;
62616;SDS011;48692;51.190;6.808;2022-07-12T01:44:52;1.88;;;1.70;;
62616;SDS011;48692;51.190;6.808;2022-07-12T01:47:19;1.73;;;1.63;;
62616;SDS011;48692;51.190;6.808;2022-07-12T01:49:46;1.73;;;1.63;;
62616;SDS011;48692;51.190;6.808;2022-07-12T01:52:12;2.03;;;1.60;;
62616;SDS011;48692;51.190;6.808;2022-07-12T01:54:39;1.75;;;1.60;;
62616;SDS011;48692;51.190;6.808;2022-07-12T01:57:07;1.70;;;1.60;;
62616;SDS011;48692;51.190;6.808;2022-07-12T01:59:33;1.85;;;1.75;;
62616;SDS011;48692;51.190;6.808;2022-07-12T02:01:59;2.22;;;1.95;;
62616;SDS011;48692;51.190;6.808;2022-07-12T02:04:28;1.73;;;1.63;;
62616;SDS011;48692;51.190;6.808;2022-07-12T02:06:55;1.98;;;1.70;;
62616;SDS011;48692;51.190;6.808;2022-07-12T02:09:21;2.03;;;1.83;;
62616;SDS011;48692;51.190;6.808;2022-07-12T02:11:47;1.48;;;1.38;;
62616;SDS011;48692;51.190;6.808;2022-07-12T02:14:14;1.60;;;1.50;;
62616;SDS011;48692;51.190;6.808;2022-07-12T02:16:40;1.98;;;1.77;;
62616;SDS011;48692;51.190;6.808;2022-07-12T02:19:07;1.75;;;1.65;;
62616;SDS011;48692;51.190;6.808;2022-07-12T02:21:33;1.98;;;1.77;;
62616;SDS011;48692;51.190;6.808;2022-07-12T02:23:59;1.83;;;1.73;;
62616;SDS011;48692;51.190;6.808;2022-07-12T02:26:25;1.80;;;1.70;;
62616;SDS011;48692;51.190;6.808;2022-07-12T02:28:52;1.65;;;1.55;;
62616;SDS011;48692;51.190;6.808;2022-07-12T02:31:17;1.70;;;1.60;;
62616;SDS011;48692;51.190;6.808;2022-07-12T02:33:43;1.88;;;1.70;;
62616;SDS011;48692;51.190;6.808;2022-07-12T02:36:08;1.60;;;1.50;;
62616;SDS011;48692;51.190;6.808;2022-07-12T02:38:34;1.80;;;1.70;;
62616;SDS011;48692;51.190;6.808;2022-07-12T02:41:00;1.90;;;1.70;;
62616;SDS011;48692;51.190;6.808;2022-07-12T02:43:26;2.05;;;1.60;;
62616;SDS011;48692;51.190;6.808;2022-07-12T02:46:02;1.85;;;1.70;;
62616;SDS011;48692;51.190;6.808;2022-07-12T02:48:35;1.70;;;1.60;;
62616;SDS011;48692;51.190;6.808;2022-07-12T02:51:02;1.98;;;1.77;;
62616;SDS011;48692;51.190;6.808;2022-07-12T02:53:29;1.70;;;1.60;;
62616;SDS011;48692;51.190;6.808;2022-07-12T02:55:56;1.60;;;1.50;;
62616;SDS011;48692;51.190;6.808;2022-07-12T02:58:22;1.83;;;1.73;;
62616;SDS011;48692;51.190;6.808;2022-07-12T03:00:47;1.65;;;1.55;;
62616;SDS011;48692;51.190;6.808;2022-07-12T03:03:13;1.90;;;1.70;;
62616;SDS011;48692;51.190;6.808;2022-07-12T03:05:40;1.50;;;1.40;;
62616;SDS011;48692;51.190;6.808;2022-07-12T03:08:07;1.60;;;1.50;;
62616;SDS011;48692;51.190;6.808;2022-07-12T03:10:35;1.73;;;1.58;;
62616;SDS011;48692;51.190;6.808;2022-07-12T03:13:02;1.55;;;1.45;;
62616;SDS011;48692;51.190;6.808;2022-07-12T03:15:28;1.75;;;1.65;;
62616;SDS011;48692;51.190;6.808;2022-07-12T03:17:55;1.60;;;1.50;;
62616;SDS011;48692;51.190;6.808;2022-07-12T03:20:22;2.03;;;1.88;;
62616;SDS011;48692;51.190;6.808;2022-07-12T03:22:48;1.77;;;1.67;;
62616;SDS011;48692;51.190;6.808;2022-07-12T03:25:15;1.52;;;1.42;;
62616;SDS011;48692;51.190;6.808;2022-07-12T03:27:41;1.60;;;1.50;;
62616;SDS011;48692;51.190;6.808;2022-07-12T03:30:07;2.00;;;1.60;;
62616;SDS011;48692;51.190;6.808;2022-07-12T03:32:34;1.73;;;1.63;;
62616;SDS011;48692;51.190;6.808;2022-07-12T03:35:00;1.60;;;1.50;;
62616;SDS011;48692;51.190;6.808;2022-07-12T03:37:26;1.60;;;1.50;;
62616;SDS011;48692;51.190;6.808;2022-07-12T03:39:52;1.77;;;1.40;;
62616;SDS011;48692;51.190;6.808;2022-07-12T03:42:18;2.97;;;1.48;;
62616;SDS011;48692;51.190;6.808;2022-07-12T03:44:44;1.83;;;1.58;;
62616;SDS011;48692;51.190;6.808;2022-07-12T03:47:10;2.25;;;1.60;;
62616;SDS011;48692;51.190;6.808;2022-07-12T03:49:35;1.80;;;1.70;;
62616;SDS011;48692;51.190;6.808;2022-07-12T03:52:01;1.73;;;1.63;;
62616;SDS011;48692;51.190;6.808;2022-07-12T03:54:28;1.60;;;1.50;;
62616;SDS011;48692;51.190;6.808;2022-07-12T03:56:54;1.90;;;1.70;;
62616;SDS011;48692;51.190;6.808;2022-07-12T03:59:38;1.80;;;1.70;;
62616;SDS011;48692;51.190;6.808;2022-07-12T04:02:03;1.50;;;1.40;;
62616;SDS011;48692;51.190;6.808;2022-07-12T04:04:28;1.60;;;1.50;;
62616;SDS011;48692;51.190;6.808;2022-07-12T04:06:54;1.80;;;1.70;;
62616;SDS011;48692;51.190;6.808;2022-07-12T04:09:19;1.98;;;1.67;;
62616;SDS011;48692;51.190;6.808;2022-07-12T04:11:45;1.60;;;1.50;;
62616;SDS011;48692;51.190;6.808;2022-07-12T04:14:11;2.97;;;1.60;;
62616;SDS011;48692;51.190;6.808;2022-07-12T04:16:36;1.60;;;1.50;;
62616;SDS011;48692;51.190;6.808;2022-07-12T04:19:02;1.70;;;1.60;;
62616;SDS011;48692;51.190;6.808;2022-07-12T04:21:28;2.60;;;1.70;;
62616;SDS011;48692;51.190;6.808;2022-07-12T04:23:53;1.88;;;1.63;;
62616;SDS011;48692;51.190;6.808;2022-07-12T04:26:18;1.52;;;1.42;;
62616;SDS011;48692;51.190;6.808;2022-07-12T04:28:45;1.52;;;1.42;;
62616;SDS011;48692;51.190;6.808;2022-07-12T04:31:10;1.60;;;1.50;;
62616;SDS011;48692;51.190;6.808;2022-07-12T04:33:35;1.95;;;1.50;;
62616;SDS011;48692;51.190;6.808;2022-07-12T04:36:01;1.60;;;1.50;;
62616;SDS011;48692;51.190;6.808;2022-07-12T04:38:27;1.60;;;1.50;;
62616;SDS011;48692;51.190;6.808;2022-07-12T04:40:52;1.83;;;1.38;;
62616;SDS011;48692;51.190;6.808;2022-07-12T04:43:18;2.42;;;1.70;;
62616;SDS011;48692;51.190;6.808;2022-07-12T04:45:43;1.80;;;1.70;;
62616;SDS011;48692;51.190;6.808;2022-07-12T04:48:09;2.20;;;1.60;;
62616;SDS011;48692;51.190;6.808;2022-07-12T04:50:36;1.70;;;1.60;;
62616;SDS011;48692;51.190;6.808;2022-07-12T04:53:02;1.70;;;1.60;;
62616;SDS011;48692;51.190;6.808;2022-07-12T04:55:28;1.77;;;1.67;;
62616;SDS011;48692;51.190;6.808;2022-07-12T04:57:54;2.08;;;1.83;;
62616;SDS011;48692;51.190;6.808;2022-07-12T05:00:19;1.70;;;1.60;;
62616;SDS011;48692;51.190;6.808;2022-07-12T05:02:46;1.80;;;1.70;;
62616;SDS011;48692;51.190;6.808;2022-07-12T05:05:11;1.40;;;1.30;;
62616;SDS011;48692;51.190;6.808;2022-07-12T05:07:37;2.10;;;1.95;;
62616;SDS011;48692;51.190;6.808;2022-07-12T05:10:02;2.58;;;1.50;;
62616;SDS011;48692;51.190;6.808;2022-07-12T05:12:28;1.85;;;1.75;;
62616;SDS011;48692;51.190;6.808;2022-07-12T05:14:54;1.80;;;1.70;;
62616;SDS011;48692;51.190;6.808;2022-07-12T05:17:19;2.03;;;1.80;;
62616;SDS011;48692;51.190;6.808;2022-07-12T05:19:45;1.90;;;1.80;;
62616;SDS011;48692;51.190;6.808;2022-07-12T05:22:10;2.25;;;1.65;;
62616;SDS011;48692;51.190;6.808;2022-07-12T05:24:35;2.08;;;1.88;;
62616;SDS011;48692;51.190;6.808;2022-07-12T05:27:01;1.70;;;1.60;;
62616;SDS011;48692;51.190;6.808;2022-07-12T05:29:26;2.40;;;1.90;;
62616;SDS011;48692;51.190;6.808;2022-07-12T05:31:55;1.85;;;1.75;;
62616;SDS011;48692;51.190;6.808;2022-07-12T05:34:22;1.67;;;1.57;;
62616;SDS011;48692;51.190;6.808;2022-07-12T05:36:48;2.00;;;1.80;;
62616;SDS011;48692;51.190;6.808;2022-07-12T05:39:14;1.90;;;1.75;;
62616;SDS011;48692;51.190;6.808;2022-07-12T05:41:39;1.63;;;1.52;;
62616;SDS011;48692;51.190;6.808;2022-07-12T05:44:05;2.08;;;1.85;;
62616;SDS011;48692;51.190;6.808;2022-07-12T05:46:30;2.03;;;1.90;;
62616;SDS011;48692;51.190;6.808;2022-07-12T05:48:56;1.95;;;1.70;;
62616;SDS011;48692;51.190;6.808;2022-07-12T05:51:21;1.88;;;1.73;;
62616;SDS011;48692;51.190;6.808;2022-07-12T05:54:05;1.90;;;1.80;;
62616;SDS011;48692;51.190;6.808;2022-07-12T05:56:31;3.38;;;2.25;;
62616;SDS011;48692;51.190;6.808;2022-07-12T05:58:56;1.65;;;1.55;;
62616;SDS011;48692;51.190;6.808;2022-07-12T06:01:22;2.30;;;2.10;;
62616;SDS011;48692;51.190;6.808;2022-07-12T06:03:47;2.10;;;1.90;;
62616;SDS011;48692;51.190;6.808;2022-07-12T06:06:13;2.10;;;1.70;;
62616;SDS011;48692;51.190;6.808;2022-07-12T06:08:38;1.83;;;1.73;;
62616;SDS011;48692;51.190;6.808;2022-07-12T06:11:04;2.30;;;2.10;;
62616;SDS011;48692;51.190;6.808;2022-07-12T06:13:29;2.38;;;1.80;;
62616;SDS011;48692;51.190;6.808;2022-07-12T06:15:55;2.50;;;2.30;;
62616;SDS011;48692;51.190;6.808;2022-07-12T06:18:21;2.35;;;2.05;;
62616;SDS011;48692;51.190;6.808;2022-07-12T06:20:47;2.20;;;2.00;;
62616;SDS011;48692;51.190;6.808;2022-07-12T06:23:12;2.85;;;2.55;;
62616;SDS011;48692;51.190;6.808;2022-07-12T06:25:38;1.90;;;1.75;;
62616;SDS011;48692;51.190;6.808;2022-07-12T06:28:04;1.80;;;1.70;;
62616;SDS011;48692;51.190;6.808;2022-07-12T06:30:30;3.50;;;2.15;;
62616;SDS011;48692;51.190;6.808;2022-07-12T06:32:56;2.20;;;2.00;;
62616;SDS011;48692;51.190;6.808;2022-07-12T06:35:21;2.25;;;2.05;;
62616;SDS011;48692;51.190;6.808;2022-07-12T06:37:50;2.17;;;1.88;;
62616;SDS011;48692;51.190;6.808;2022-07-12T06:40:15;1.90;;;1.80;;
62616;SDS011;48692;51.190;6.808;2022-07-12T06:42:42;2.45;;;1.92;;
62616;SDS011;48692;51.190;6.808;2022-07-12T06:45:09;1.70;;;1.60;;
62616;SDS011;48692;51.190;6.808;2022-07-12T06:47:35;1.52;;;1.40;;
62616;SDS011;48692;51.190;6.808;2022-07-12T06:50:02;1.70;;;1.60;;
62616;SDS011;48692;51.190;6.808;2022-07-12T06:52:28;1.83;;;1.70;;
62616;SDS011;48692;51.190;6.808;2022-07-12T06:54:55;3.00;;;1.98;;
62616;SDS011;48692;51.190;6.808;2022-07-12T06:57:21;1.70;;;1.60;;
62616;SDS011;48692;51.190;6.808;2022-07-12T06:59:46;2.00;;;1.80;;
62616;SDS011;48692;51.190;6.808;2022-07-12T07:02:13;2.78;;;1.90;;
62616;SDS011;48692;51.190;6.808;2022-07-12T07:04:38;2.00;;;1.88;;
62616;SDS011;48692;51.190;6.808;2022-07-12T07:07:04;2.00;;;1.80;;
62616;SDS011;48692;51.190;6.808;2022-07-12T07:09:29;1.92;;;1.80;;
62616;SDS011;48692;51.190;6.808;2022-07-12T07:11:55;3.15;;;2.03;;
62616;SDS011;48692;51.190;6.808;2022-07-12T07:14:20;1.77;;;1.67;;
62616;SDS011;48692;51.190;6.808;2022-07-12T07:16:45;2.13;;;1.92;;
62616;SDS011;48692;51.190;6.808;2022-07-12T07:19:11;2.30;;;2.10;;
62616;SDS011;48692;51.190;6.808;2022-07-12T07:21:37;2.22;;;1.88;;
62616;SDS011;48692;51.190;6.808;2022-07-12T07:24:02;3.55;;;2.30;;
62616;SDS011;48692;51.190;6.808;2022-07-12T07:26:29;2.03;;;1.65;;
62616;SDS011;48692;51.190;6.808;2022-07-12T07:28:55;2.30;;;2.10;;
62616;SDS011;48692;51.190;6.808;2022-07-12T07:31:39;1.95;;;1.80;;
62616;SDS011;48692;51.190;6.808;2022-07-12T07:34:05;2.47;;;2.28;;
62616;SDS011;48692;51.190;6.808;2022-07-12T07:36:30;1.63;;;1.52;;
62616;SDS011;48692;51.190;6.808;2022-07-12T07:38:57;2.67;;;2.47;;
62616;SDS011;48692;51.190;6.808;2022-07-12T07:41:23;1.88;;;1.65;;
62616;SDS011;48692;51.190;6.808;2022-07-12T07:43:48;2.05;;;1.95;;
62616;SDS011;48692;51.190;6.808;2022-07-12T07:46:14;2.78;;;2.25;;
62616;SDS011;48692;51.190;6.808;2022-07-12T07:48:39;2.70;;;2.47;;
62616;SDS011;48692;51.190;6.808;2022-07-12T07:51:05;3.03;;;2.70;;
62616;SDS011;48692;51.190;6.808;2022-07-12T07:53:30;2.95;;;2.63;;
62616;SDS011;48692;51.190;6.808;2022-07-12T07:55:56;2.97;;;2.50;;
62616;SDS011;48692;51.190;6.808;2022-07-12T07:58:23;2.08;;;1.92;;
62616;SDS011;48692;51.190;6.808;2022-07-12T08:00:50;3.88;;;3.50;;
62616;SDS011;48692;51.190;6.808;2022-07-12T08:03:15;3.75;;;2.92;;
62616;SDS011;48692;51.190;6.808;2022-07-12T08:05:42;4.50;;;3.60;;
62616;SDS011;48692;51.190;6.808;2022-07-12T08:08:07;2.60;;;2.40;;
62616;SDS011;48692;51.190;6.808;2022-07-12T08:10:33;2.33;;;2.13;;
62616;SDS011;48692;51.190;6.808;2022-07-12T08:12:58;1.48;;;1.38;;
62616;SDS011;48692;51.190;6.808;2022-07-12T08:15:24;1.90;;;1.33;;
62616;SDS011;48692;51.190;6.808;2022-07-12T08:17:50;1.58;;;1.48;;
62616;SDS011;48692;51.190;6.808;2022-07-12T08:20:16;1.58;;;1.48;;
62616;SDS011;48692;51.190;6.808;2022-07-12T08:22:42;2.13;;;1.85;;
62616;SDS011;48692;51.190;6.808;2022-07-12T08:25:12;1.80;;;1.70;;
62616;SDS011;48692;51.190;6.808;2022-07-12T08:27:38;1.80;;;1.42;;
62616;SDS011;48692;51.190;6.808;2022-07-12T08:30:04;1.63;;;1.52;;
62616;SDS011;48692;51.190;6.808;2022-07-12T08:32:31;2.45;;;2.00;;
62616;SDS011;48692;51.190;6.808;2022-07-12T08:34:56;1.38;;;1.27;;
62616;SDS011;48692;51.190;6.808;2022-07-12T08:37:22;3.95;;;2.95;;
62616;SDS011;48692;51.190;6.808;2022-07-12T08:39:48;1.45;;;1.35;;
62616;SDS011;48692;51.190;6.808;2022-07-12T08:42:14;1.85;;;1.75;;
62616;SDS011;48692;51.190;6.808;2022-07-12T08:44:41;2.30;;;2.10;;
62616;SDS011;48692;51.190;6.808;2022-07-12T08:47:08;6.32;;;3.78;;
62616;SDS011;48692;51.190;6.808;2022-07-12T08:49:35;1.50;;;1.40;;
62616;SDS011;48692;51.190;6.808;2022-07-12T08:54:53;1.50;;;1.40;;
62616;SDS011;48692;51.190;6.808;2022-07-12T08:57:28;1.50;;;1.40;;
62616;SDS011;48692;51.190;6.808;2022-07-12T08:59:58;1.88;;;1.33;;
62616;SDS011;48692;51.190;6.808;2022-07-12T09:02:25;2.30;;;1.90;;
62616;SDS011;48692;51.190;6.808;2022-07-12T09:05:07;3.47;;;2.20;;
62616;SDS011;48692;51.190;6.808;2022-07-12T09:07:34;3.00;;;1.85;;
62616;SDS011;48692;51.190;6.808;2022-07-12T09:10:04;1.50;;;1.40;;
62616;SDS011;48692;51.190;6.808;2022-07-12T09:12:33;1.50;;;1.40;;
62616;SDS011;48692;51.190;6.808;2022-07-12T09:17:45;1.33;;;1.23;;
62616;SDS011;48692;51.190;6.808;2022-07-12T09:20:22;2.45;;;2.25;;
62616;SDS011;48692;51.190;6.808;2022-07-12T09:22:59;1.48;;;1.38;;
62616;SDS011;48692;51.190;6.808;2022-07-12T09:27:56;1.58;;;1.40;;
62616;SDS011;48692;51.190;6.808;2022-07-12T09:30:24;1.55;;;1.45;;
62616;SDS011;48692;51.190;6.808;2022-07-12T09:33:05;1.50;;;1.40;;
62616;SDS011;48692;51.190;6.808;2022-07-12T09:41:19;1.30;;;1.20;;
62616;SDS011;48692;51.190;6.808;2022-07-12T09:43:50;1.50;;;1.40;;
62616;SDS011;48692;51.190;6.808;2022-07-12T09:46:17;1.42;;;1.33;;
62616;SDS011;48692;51.190;6.808;2022-07-12T09:48:44;1.30;;;1.20;;
62616;SDS011;48692;51.190;6.808;2022-07-12T09:51:14;1.45;;;1.20;;
62616;SDS011;48692;51.190;6.808;2022-07-12T09:53:45;1.50;;;1.40;;
62616;SDS011;48692;51.190;6.808;2022-07-12T09:56:14;1.38;;;1.27;;
62616;SDS011;48692;51.190;6.808;2022-07-12T10:01:19;1.38;;;1.20;;
62616;SDS011;48692;51.190;6.808;2022-07-12T10:03:46;1.35;;;1.25;;
62616;SDS011;48692;51.190;6.808;2022-07-12T10:06:24;1.40;;;1.30;;
62616;SDS011;48692;51.190;6.808;2022-07-12T10:08:51;1.40;;;1.30;;
62616;SDS011;48692;51.190;6.808;2022-07-12T10:11:18;1.30;;;1.20;;
62616;SDS011;48692;51.190;6.808;2022-07-12T10:13:44;1.42;;;1.33;;
62616;SDS011;48692;51.190;6.808;2022-07-12T10:16:12;1.50;;;1.30;;
62616;SDS011;48692;51.190;6.808;2022-07-12T10:18:40;1.42;;;1.33;;
62616;SDS011;48692;51.190;6.808;2022-07-12T10:21:21;1.50;;;1.40;;
62616;SDS011;48692;51.190;6.808;2022-07-12T10:23:49;1.40;;;1.30;;
62616;SDS011;48692;51.190;6.808;2022-07-12T10:29:03;3.83;;;1.15;;
62616;SDS011;48692;51.190;6.808;2022-07-12T10:34:24;1.33;;;1.23;;
62616;SDS011;48692;51.190;6.808;2022-07-12T10:39:21;1.30;;;1.20;;
62616;SDS011;48692;51.190;6.808;2022-07-12T10:44:44;1.30;;;1.20;;
62616;SDS011;48692;51.190;6.808;2022-07-12T10:47:12;1.42;;;1.33;;
62616;SDS011;48692;51.190;6.808;2022-07-12T10:49:47;1.27;;;1.17;;
62616;SDS011;48692;51.190;6.808;2022-07-12T10:52:15;1.50;;;1.40;;
62616;SDS011;48692;51.190;6.808;2022-07-12T10:55:15;1.30;;;1.20;;
62616;SDS011;48692;51.190;6.808;2022-07-12T10:57:45;1.38;;;1.27;;
62616;SDS011;48692;51.190;6.808;2022-07-12T11:00:15;1.20;;;1.10;;
62616;SDS011;48692;51.190;6.808;2022-07-12T11:02:42;1.30;;;1.20;;
62616;SDS011;48692;51.190;6.808;2022-07-12T11:05:08;1.13;;;1.10;;
62616;SDS011;48692;51.190;6.808;2022-07-12T11:07:34;1.20;;;1.10;;
62616;SDS011;48692;51.190;6.808;2022-07-12T11:10:00;1.40;;;1.30;;
62616;SDS011;48692;51.190;6.808;2022-07-12T11:12:27;1.20;;;1.10;;
62616;SDS011;48692;51.190;6.808;2022-07-12T11:14:54;1.20;;;1.10;;
62616;SDS011;48692;51.190;6.808;2022-07-12T11:17:27;1.30;;;1.20;;
62616;SDS011;48692;51.190;6.808;2022-07-12T11:22:37;1.30;;;1.20;;
62616;SDS011;48692;51.190;6.808;2022-07-12T11:25:06;1.30;;;1.20;;
62616;SDS011;48692;51.190;6.808;2022-07-12T11:27:34;1.30;;;1.20;;
62616;SDS011;48692;51.190;6.808;2022-07-12T11:30:00;1.27;;;1.17;;
62616;SDS011;48692;51.190;6.808;2022-07-12T11:32:41;1.10;;;1.00;;
62616;SDS011;48692;51.190;6.808;2022-07-12T11:35:19;1.23;;;1.13;;
62616;SDS011;48692;51.190;6.808;2022-07-12T11:37:56;1.10;;;1.10;;
62616;SDS011;48692;51.190;6.808;2022-07-12T11:40:26;1.10;;;1.10;;
62616;SDS011;48692;51.190;6.808;2022-07-12T11:43:01;1.17;;;1.08;;
62616;SDS011;48692;51.190;6.808;2022-07-12T11:45:30;1.30;;;1.20;;
62616;SDS011;48692;51.190;6.808;2022-07-12T11:47:58;1.38;;;1.20;;
62616;SDS011;48692;51.190;6.808;2022-07-12T11:50:28;0.90;;;0.90;;
62616;SDS011;48692;51.190;6.808;2022-07-12T11:52:55;1.38;;;1.00;;
62616;SDS011;48692;51.190;6.808;2022-07-12T11:55:20;1.20;;;1.10;;
62616;SDS011;48692;51.190;6.808;2022-07-12T11:57:48;1.00;;;1.00;;
62616;SDS011;48692;51.190;6.808;2022-07-12T12:00:17;1.20;;;1.10;;
62616;SDS011;48692;51.190;6.808;2022-07-12T12:02:48;1.02;;;1.00;;
62616;SDS011;48692;51.190;6.808;2022-07-12T12:05:17;1.20;;;1.10;;
62616;SDS011;48692;51.190;6.808;2022-07-12T12:07:43;1.92;;;1.10;;
62616;SDS011;48692;51.190;6.808;2022-07-12T12:10:10;1.10;;;1.00;;
62616;SDS011;48692;51.190;6.808;2022-07-12T12:12:41;1.23;;;1.13;;
62616;SDS011;48692;51.190;6.808;2022-07-12T12:15:09;1.20;;;1.10;;
62616;SDS011;48692;51.190;6.808;2022-07-12T12:17:59;0.93;;;0.93;;
62616;SDS011;48692;51.190;6.808;2022-07-12T12:20:31;1.10;;;1.00;;
62616;SDS011;48692;51.190;6.808;2022-07-12T12:22:58;1.20;;;1.10;;
62616;SDS011;48692;51.190;6.808;2022-07-12T12:25:29;1.05;;;1.02;;
62616;SDS011;48692;51.190;6.808;2022-07-12T12:30:27;1.10;;;1.00;;
62616;SDS011;48692;51.190;6.808;2022-07-12T12:32:59;1.55;;;1.17;;
62616;SDS011;48692;51.190;6.808;2022-07-12T12:35:34;1.02;;;1.00;;
62616;SDS011;48692;51.190;6.808;2022-07-12T12:38:10;1.08;;;0.98;;
62616;SDS011;48692;51.190;6.808;2022-07-12T12:40:38;1.00;;;1.00;;
62616;SDS011;48692;51.190;6.808;2022-07-12T12:43:11;1.08;;;1.00;;
62616;SDS011;48692;51.190;6.808;2022-07-12T12:45:49;1.00;;;1.00;;
62616;SDS011;48692;51.190;6.808;2022-07-12T12:48:23;1.02;;;1.00;;
62616;SDS011;48692;51.190;6.808;2022-07-12T12:50:52;1.00;;;1.00;;
62616;SDS011;48692;51.190;6.808;2022-07-12T12:53:23;1.20;;;1.00;;
62616;SDS011;48692;51.190;6.808;2022-07-12T12:55:53;1.20;;;1.10;;
62616;SDS011;48692;51.190;6.808;2022-07-12T12:58:21;1.13;;;1.00;;
62616;SDS011;48692;51.190;6.808;2022-07-12T13:00:51;1.20;;;1.10;;
62616;SDS011;48692;51.190;6.808;2022-07-12T13:03:20;1.00;;;0.90;;
62616;SDS011;48692;51.190;6.808;2022-07-12T13:05:48;0.77;;;0.77;;
62616;SDS011;48692;51.190;6.808;2022-07-12T13:08:17;0.88;;;0.88;;
62616;SDS011;48692;51.190;6.808;2022-07-12T13:10:43;1.10;;;1.00;;
62616;SDS011;48692;51.190;6.808;2022-07-12T13:13:10;2.35;;;1.10;;
62616;SDS011;48692;51.190;6.808;2022-07-12T13:15:40;0.95;;;0.95;;
62616;SDS011;48692;51.190;6.808;2022-07-12T13:18:05;1.15;;;1.05;;
62616;SDS011;48692;51.190;6.808;2022-07-12T13:20:32;1.00;;;1.00;;
62616;SDS011;48692;51.190;6.808;2022-07-12T13:22:58;1.13;;;1.00;;
62616;SDS011;48692;51.190;6.808;2022-07-12T13:25:25;0.80;;;0.80;;
62616;SDS011;48692;51.190;6.808;2022-07-12T13:27:52;1.02;;;1.00;;
62616;SDS011;48692;51.190;6.808;2022-07-12T13:30:18;1.10;;;1.00;;
62616;SDS011;48692;51.190;6.808;2022-07-12T13:32:44;1.85;;;1.10;;
62616;SDS011;48692;51.190;6.808;2022-07-12T13:35:11;0.90;;;0.90;;
62616;SDS011;48692;51.190;6.808;2022-07-12T13:37:38;0.90;;;0.90;;
62616;SDS011;48692;51.190;6.808;2022-07-12T13:40:06;0.93;;;0.93;;
62616;SDS011;48692;51.190;6.808;2022-07-12T13:42:43;0.98;;;0.90;;
62616;SDS011;48692;51.190;6.808;2022-07-12T13:45:20;1.40;;;0.93;;
62616;SDS011;48692;51.190;6.808;2022-07-12T13:47:50;0.88;;;0.88;;
62616;SDS011;48692;51.190;6.808;2022-07-12T13:50:18;0.90;;;0.90;;
62616;SDS011;48692;51.190;6.808;2022-07-12T13:52:46;0.80;;;0.80;;
62616;SDS011;48692;51.190;6.808;2022-07-12T13:55:13;0.85;;;0.85;;
62616;SDS011;48692;51.190;6.808;2022-07-12T13:57:42;1.02;;;0.82;;
62616;SDS011;48692;51.190;6.808;2022-07-12T14:00:09;0.80;;;0.80;;
62616;SDS011;48692;51.190;6.808;2022-07-12T14:02:38;1.10;;;1.00;;
62616;SDS011;48692;51.190;6.808;2022-07-12T14:05:06;0.80;;;0.80;;
62616;SDS011;48692;51.190;6.808;2022-07-12T14:07:34;0.80;;;0.80;;
62616;SDS011;48692;51.190;6.808;2022-07-12T14:10:03;1.10;;;1.00;;
62616;SDS011;48692;51.190;6.808;2022-07-12T14:12:29;0.90;;;0.90;;
62616;SDS011;48692;51.190;6.808;2022-07-12T14:14:55;0.80;;;0.80;;
62616;SDS011;48692;51.190;6.808;2022-07-12T14:17:43;0.90;;;0.90;;
62616;SDS011;48692;51.190;6.808;2022-07-12T14:20:16;0.95;;;0.95;;
62616;SDS011;48692;51.190;6.808;2022-07-12T14:22:46;0.90;;;0.90;;
62616;SDS011;48692;51.190;6.808;2022-07-12T14:25:14;0.85;;;0.85;;
62616;SDS011;48692;51.190;6.808;2022-07-12T14:27:41;0.90;;;0.90;;
62616;SDS011;48692;51.190;6.808;2022-07-12T14:30:08;0.90;;;0.90;;
62616;SDS011;48692;51.190;6.808;2022-07-12T14:32:38;0.90;;;0.90;;
62616;SDS011;48692;51.190;6.808;2022-07-12T14:35:04;1.13;;;0.90;;
62616;SDS011;48692;51.190;6.808;2022-07-12T14:37:31;0.80;;;0.80;;
62616;SDS011;48692;51.190;6.808;2022-07-12T14:39:59;0.80;;;0.80;;
62616;SDS011;48692;51.190;6.808;2022-07-12T14:42:25;0.90;;;0.80;;
62616;SDS011;48692;51.190;6.808;2022-07-12T14:44:50;0.90;;;0.90;;
62616;SDS011;48692;51.190;6.808;2022-07-12T14:47:16;0.80;;;0.80;;
62616;SDS011;48692;51.190;6.808;2022-07-12T14:49:42;0.80;;;0.80;;
62616;SDS011;48692;51.190;6.808;2022-07-12T14:52:08;0.80;;;0.80;;
62616;SDS011;48692;51.190;6.808;2022-07-12T14:54:33;0.80;;;0.80;;
62616;SDS011;48692;51.190;6.808;2022-07-12T14:56:59;0.98;;;0.88;;
62616;SDS011;48692;51.190;6.808;2022-07-12T14:59:25;0.75;;;0.75;;
62616;SDS011;48692;51.190;6.808;2022-07-12T15:01:50;0.80;;;0.80;;
62616;SDS011;48692;51.190;6.808;2022-07-12T15:04:17;0.90;;;0.90;;
62616;SDS011;48692;51.190;6.808;2022-07-12T15:06:42;0.77;;;0.77;;
62616;SDS011;48692;51.190;6.808;2022-07-12T15:09:07;1.02;;;0.93;;
62616;SDS011;48692;51.190;6.808;2022-07-12T15:11:33;1.05;;;0.95;;
62616;SDS011;48692;51.190;6.808;2022-07-12T15:13:59;0.80;;;0.80;;
62616;SDS011;48692;51.190;6.808;2022-07-12T15:16:24;1.20;;;0.90;;
62616;SDS011;48692;51.190;6.808;2022-07-12T15:18:50;0.80;;;0.80;;
62616;SDS011;48692;51.190;6.808;2022-07-12T15:21:15;0.93;;;0.93;;
62616;SDS011;48692;51.190;6.808;2022-07-12T15:23:41;1.00;;;0.90;;
62616;SDS011;48692;51.190;6.808;2022-07-12T15:26:07;0.90;;;0.90;;